메인 페이지
METAR-TAF:

METAR-TAF

공항 :

푸앵타피트르 국제공항

Pointe-à-Pitre, 과들루프

위도: 16-16N, 경도: 061-31W, 고도: 11m

현재 날씨관측

예보는 29분 전, 04:30시(UTC)에 발표되었습니다.
5kt
온도 27°C
습도 79%
기압 1013 hPa
시정 10km 이상
1500m 미만 상공 구름 및 적란운 없음

METAR: TFFR 160430Z AUTO 09005KT CAVOK 27/23 Q1013 TEMPO VRB15G25KT 1200 TSRA BKN010CB

시각: 00:59 (04:59 UTC)

예보

예보는 5 시간 59분 전, 23:00시(UTC)에 발표되었습니다.
예보 대상 시간: 16일 00시부터 16일 24시까지 (UTC)
동북동10kt
시정 10km 이상
고도 3000ft 상공 구름 많음
일시적
16일 00시부터 16일 24시까지 (UTC)
시정: 4000m
고도 1500ft 상공 구름 조금, 적란운.
고도 1800ft 상공 구름 많음, 타워링 적운.
소나기
확률 30% :
일시적
16일 04시부터 16일 09시까지 (UTC)
여러 방향의 바람 15kt, 순간 최대 풍속 25kt
시정: 1200m
고도 1000ft 상공 구름 많음, 적란운.
뇌우, 비
확률 30% :
일시적
16일 17시부터 16일 24시까지 (UTC)
여러 방향의 바람 18kt, 순간 최대 풍속 30kt
시정: 1000m
고도 1000ft 상공 구름 많음, 적란운.
뇌우, 비

TAF: TFFR 152300Z 1600/1624 06010KT 9999 BKN030 TEMPO 1600/1624 4000 SHRA FEW015CB BKN018TCU PROB30 TEMPO 1604/1609 VRB15G25KT 1200 TSRA BKN010CB PROB30 TEMPO 1617/1624 VRB18G30KT 1000 TSRA BKN010CB

4,000개 이상의 공항 관측 자료 및 예보 (METAR 및 TAF 보고).

지도상에서 검색 가능한 기상관측소가 노란 점과 빨간 점으로 표시되어 있습니다.

기상관측소 명을 보려면 표시 위로 마우스를 이동하세요.

날씨 관측과 예보를 보려면 클릭하세요.

지도 변경 : 확대하려면 엑스 표시가 있는 녹색 버튼, 축소하려면 빼기 표시가 있는 녹색 버튼, 다음 페이지의 지도를 보려면 녹색 화살표를 클릭하세요.


METAR-TAF: